Time;durP1;ratioP1;P1;durP2;ratioP2;P2;SDS_P1;SDS_P2;PMS_P1;PMS_P2;Temp;Humidity;BMP_temperature;BMP_pressure;BME280_temperature;BME280_humidity;BME280_pressure;Samples;Min_cycle;Max_cycle;Signal;HPM_P1;HPM_P2
2022/02/02 00:04:42;;;;;;;3.33;1.83;;;;;;;;;;5006601;28;20036;-59
2022/02/02 00:07:21;;;;;;;2.13;1.42;;;;;;;;;;5021328;28;20601;-58
2022/02/02 00:10:00;;;;;;;3.75;1.73;;;;;;;;;;5007082;28;20444;-58
2022/02/02 00:12:41;;;;;;;2.92;1.83;;;;;;;;;;5006686;28;20116;-61
2022/02/02 00:17:55;;;;;;;2.92;1.63;;;;;;;;;;5006746;28;20582;-61
2022/02/02 00:20:27;;;;;;;4.07;1.80;;;;;;;;;;5006241;28;20420;-57
2022/02/02 00:22:55;;;;;;;2.50;1.60;;;;;;;;;;5006165;28;20030;-58
2022/02/02 00:25:25;;;;;;;2.83;1.63;;;;;;;;;;5006085;28;20021;-58
2022/02/02 00:27:56;;;;;;;3.03;1.73;;;;;;;;;;5006322;28;20501;-58
2022/02/02 00:30:24;;;;;;;3.20;1.60;;;;;;;;;;5006289;28;20673;-61
2022/02/02 00:35:29;;;;;;;2.53;1.42;;;;;;;;;;5006144;28;20740;-59
2022/02/02 00:37:55;;;;;;;2.70;1.65;;;;;;;;;;5005723;28;20030;-59
2022/02/02 00:40:20;;;;;;;3.05;1.70;;;;;;;;;;5005682;28;20591;-62
2022/02/02 00:42:49;;;;;;;3.10;1.70;;;;;;;;;;5005338;28;20041;-60
2022/02/02 00:45:14;;;;;;;3.03;1.70;;;;;;;;;;5005994;28;20303;-58
2022/02/02 00:47:40;;;;;;;2.90;1.58;;;;;;;;;;5005913;28;20107;-59
2022/02/02 00:50:06;;;;;;;3.25;1.60;;;;;;;;;;5005678;28;20037;-59
2022/02/02 00:52:31;;;;;;;2.15;1.35;;;;;;;;;;5005638;28;20045;-61
2022/02/02 00:54:56;;;;;;;3.17;1.83;;;;;;;;;;5005649;28;20022;-62
2022/02/02 00:57:23;;;;;;;4.67;1.70;;;;;;;;;;5005680;28;20160;-62
2022/02/02 00:59:49;;;;;;;3.15;1.67;;;;;;;;;;5005542;28;20300;-58
2022/02/02 01:02:14;;;;;;;2.75;1.60;;;;;;;;;;5005315;28;20057;-59
2022/02/02 01:04:39;;;;;;;3.27;1.70;;;;;;;;;;5005620;28;20026;-60
2022/02/02 01:07:14;;;;;;;2.95;1.60;;;;;;;;;;5005244;28;20293;-58
2022/02/02 01:13:21;;;;;;;2.53;1.50;;;;;;;;;;5003871;28;20500;-61
2022/02/02 01:18:09;;;;;;;2.78;1.50;;;;;;;;;;5005014;28;20046;-60
2022/02/02 01:20:53;;;;;;;2.95;1.60;;;;;;;;;;5004465;28;20026;-58
2022/02/02 01:28:34;;;;;;;3.33;1.50;;;;;;;;;;5004900;28;20448;-61
2022/02/02 01:31:00;;;;;;;2.33;1.50;;;;;;;;;;5004761;28;20042;-59
2022/02/02 01:33:26;;;;;;;3.00;1.67;;;;;;;;;;5004345;28;20455;-60
2022/02/02 01:35:51;;;;;;;3.28;1.83;;;;;;;;;;5004844;28;20044;-58
2022/02/02 01:38:17;;;;;;;3.03;1.90;;;;;;;;;;5004882;28;20029;-59
2022/02/02 01:40:47;;;;;;;3.50;1.58;;;;;;;;;;5005562;28;20038;-62
2022/02/02 01:43:18;;;;;;;2.78;1.60;;;;;;;;;;5004503;28;20036;-59
2022/02/02 01:45:54;;;;;;;2.67;1.77;;;;;;;;;;5003936;28;20048;-58
2022/02/02 01:53:28;;;;;;;2.90;1.42;;;;;;;;;;5005384;28;20289;-56
2022/02/02 01:55:54;;;;;;;2.70;1.85;;;;;;;;;;5004329;28;20025;-56
2022/02/02 01:58:50;;;;;;;2.13;1.33;;;;;;;;;;5005760;28;20026;-58
2022/02/02 02:01:07;;;;;;;3.38;1.67;;;;;;;;;;5004533;28;20265;-59
2022/02/02 02:03:32;;;;;;;2.63;1.58;;;;;;;;;;5004932;28;20047;-57
2022/02/02 02:05:58;;;;;;;3.08;1.80;;;;;;;;;;5006229;28;20025;-57
2022/02/02 02:08:23;;;;;;;2.78;2.03;;;;;;;;;;5005951;28;20476;-57
2022/02/02 02:10:49;;;;;;;3.00;1.65;;;;;;;;;;5005118;28;20708;-55
2022/02/02 02:15:45;;;;;;;2.83;1.83;;;;;;;;;;5003879;28;20359;-58
2022/02/02 02:18:11;;;;;;;3.60;1.80;;;;;;;;;;5003675;28;20117;-59
2022/02/02 02:20:36;;;;;;;2.95;1.90;;;;;;;;;;5003575;28;20105;-60
2022/02/02 02:23:02;;;;;;;2.33;1.60;;;;;;;;;;5003513;28;20038;-58
2022/02/02 02:25:29;;;;;;;3.03;1.95;;;;;;;;;;5003451;28;20045;-55
2022/02/02 02:28:04;;;;;;;2.90;1.65;;;;;;;;;;5003654;28;20079;-56
2022/02/02 02:57:28;;;;;;;2.30;1.60;;;;;;;;;;4994857;28;20829;-56
2022/02/02 03:00:21;;;;;;;2.65;1.75;;;;;;;;;;5003075;28;20700;-58
2022/02/02 03:30:04;;;;;;;3.10;1.85;;;;;;;;;;5003337;28;20591;-57
2022/02/02 03:51:39;;;;;;;3.47;2.33;;;;;;;;;;5002703;28;20092;-57
2022/02/02 03:56:38;;;;;;;3.17;1.87;;;;;;;;;;5002888;28;20113;-57
2022/02/02 04:06:55;;;;;;;2.55;1.73;;;;;;;;;;5002644;28;20062;-58
2022/02/02 04:09:20;;;;;;;3.42;2.13;;;;;;;;;;5004577;28;20025;-57
2022/02/02 04:11:55;;;;;;;2.80;1.88;;;;;;;;;;5006133;28;20061;-57
2022/02/02 04:55:46;;;;;;;2.88;1.80;;;;;;;;;;5005324;28;20163;-58
2022/02/02 04:58:03;;;;;;;3.22;2.00;;;;;;;;;;5007387;28;20119;-57
2022/02/02 05:53:38;;;;;;;2.92;2.00;;;;;;;;;;5004428;28;20037;-59
2022/02/02 05:56:04;;;;;;;2.73;2.20;;;;;;;;;;5004373;28;20408;-58
2022/02/02 05:58:29;;;;;;;3.50;2.30;;;;;;;;;;5004312;28;20264;-58
2022/02/02 06:00:55;;;;;;;3.35;2.15;;;;;;;;;;5003791;28;20500;-56
2022/02/02 06:03:23;;;;;;;3.17;2.05;;;;;;;;;;5003782;28;20036;-56
2022/02/02 06:05:49;;;;;;;3.15;2.17;;;;;;;;;;5002522;28;20026;-56
2022/02/02 06:08:14;;;;;;;3.67;2.20;;;;;;;;;;5002345;28;20037;-59
2022/02/02 06:10:40;;;;;;;2.90;1.95;;;;;;;;;;5003584;28;20802;-57
2022/02/02 06:13:06;;;;;;;3.80;2.20;;;;;;;;;;5003688;28;20033;-57
2022/02/02 06:15:31;;;;;;;3.42;2.05;;;;;;;;;;5003618;28;20026;-59
2022/02/02 06:17:56;;;;;;;5.75;2.08;;;;;;;;;;4992332;28;20487;-60
2022/02/02 06:20:22;;;;;;;4.05;2.10;;;;;;;;;;5000827;28;20096;-59
2022/02/02 06:22:50;;;;;;;3.43;2.10;;;;;;;;;;5004083;28;20112;-56
2022/02/02 06:25:22;;;;;;;2.95;2.25;;;;;;;;;;5003287;28;20046;-55
2022/02/02 06:27:51;;;;;;;3.20;2.00;;;;;;;;;;5003361;28;20112;-55
2022/02/02 06:30:17;;;;;;;3.70;2.15;;;;;;;;;;5003613;28;20041;-57
2022/02/02 06:32:46;;;;;;;3.67;2.40;;;;;;;;;;4992874;28;20029;-54
2022/02/02 06:35:11;;;;;;;3.07;2.10;;;;;;;;;;4996149;28;20829;-54
2022/02/02 06:37:37;;;;;;;3.40;2.00;;;;;;;;;;4996861;28;20357;-54
2022/02/02 06:40:03;;;;;;;3.72;2.15;;;;;;;;;;4964550;28;20292;-56
2022/02/02 06:42:28;;;;;;;2.55;1.80;;;;;;;;;;5003050;28;20037;-55
2022/02/02 06:44:54;;;;;;;2.87;2.10;;;;;;;;;;5002955;28;20041;-54
2022/02/02 06:47:19;;;;;;;2.97;2.20;;;;;;;;;;5002012;28;20068;-54
2022/02/02 06:49:47;;;;;;;4.15;2.40;;;;;;;;;;5003282;28;20026;-54
2022/02/02 06:52:19;;;;;;;3.15;2.28;;;;;;;;;;5003331;28;20060;-55
2022/02/02 06:54:54;;;;;;;3.13;2.08;;;;;;;;;;5002466;28;20038;-55
2022/02/02 06:57:21;;;;;;;2.83;1.90;;;;;;;;;;4993056;28;20022;-54
2022/02/02 07:18:14;;;;;;;3.53;2.27;;;;;;;;;;5002763;28;20105;-54
2022/02/02 07:20:51;;;;;;;3.80;2.60;;;;;;;;;;4991827;28;20281;-54
2022/02/02 07:26:25;;;;;;;3.47;2.25;;;;;;;;;;4988788;28;20037;-53
2022/02/02 07:34:28;;;;;;;3.58;2.45;;;;;;;;;;5002721;28;20491;-53
2022/02/02 07:36:56;;;;;;;3.72;2.85;;;;;;;;;;5003049;28;20034;-53
2022/02/02 07:39:22;;;;;;;5.97;2.47;;;;;;;;;;5001565;28;20040;-56
2022/02/02 07:41:47;;;;;;;4.77;2.50;;;;;;;;;;4982165;28;20022;-52
2022/02/02 07:44:19;;;;;;;3.35;2.20;;;;;;;;;;4997524;28;20266;-53
2022/02/02 07:46:46;;;;;;;5.35;2.50;;;;;;;;;;5006315;28;20021;-54
2022/02/02 07:49:11;;;;;;;3.47;2.50;;;;;;;;;;5006232;28;20116;-55
2022/02/02 07:51:37;;;;;;;4.88;2.53;;;;;;;;;;5005995;28;20559;-56
2022/02/02 07:54:04;;;;;;;3.25;2.33;;;;;;;;;;5005845;28;20026;-53
2022/02/02 07:56:35;;;;;;;3.95;2.60;;;;;;;;;;5005461;28;20029;-55
2022/02/02 08:01:47;;;;;;;4.15;2.60;;;;;;;;;;4994548;28;20518;-55
2022/02/02 08:04:13;;;;;;;5.10;2.75;;;;;;;;;;5005669;28;20049;-54
2022/02/02 08:06:41;;;;;;;3.15;2.28;;;;;;;;;;5002567;28;20112;-54
2022/02/02 08:09:08;;;;;;;5.47;3.35;;;;;;;;;;5005957;28;20163;-55
2022/02/02 08:11:35;;;;;;;4.05;2.40;;;;;;;;;;5005763;28;20045;-57
2022/02/02 08:14:02;;;;;;;4.20;2.60;;;;;;;;;;5005568;28;20446;-56
2022/02/02 08:16:29;;;;;;;3.92;2.90;;;;;;;;;;5006136;28;20036;-54
2022/02/02 08:18:54;;;;;;;4.07;3.17;;;;;;;;;;5005802;28;20030;-57
2022/02/02 08:21:20;;;;;;;4.75;2.92;;;;;;;;;;4997426;28;20376;-57
2022/02/02 08:23:46;;;;;;;6.13;2.72;;;;;;;;;;5003995;28;20025;-58
2022/02/02 08:26:15;;;;;;;4.80;2.72;;;;;;;;;;5006214;28;20057;-55
2022/02/02 08:28:41;;;;;;;5.40;2.95;;;;;;;;;;5005969;28;20385;-55
2022/02/02 08:31:06;;;;;;;6.82;2.92;;;;;;;;;;5006018;28;20038;-56
2022/02/02 08:33:38;;;;;;;4.80;3.17;;;;;;;;;;5009029;28;20399;-56
2022/02/02 08:36:08;;;;;;;4.30;2.83;;;;;;;;;;5006921;28;20023;-55
2022/02/02 08:38:48;;;;;;;4.38;2.67;;;;;;;;;;4996694;28;20037;-57
2022/02/02 08:43:43;;;;;;;5.27;2.77;;;;;;;;;;4986476;28;20109;-57
2022/02/02 08:46:14;;;;;;;5.47;2.90;;;;;;;;;;4986239;28;20049;-55
2022/02/02 08:48:43;;;;;;;5.70;2.90;;;;;;;;;;4985973;28;20034;-56
2022/02/02 08:51:13;;;;;;;3.28;2.40;;;;;;;;;;4999510;28;20064;-56
2022/02/02 08:59:00;;;;;;;5.38;3.03;;;;;;;;;;4997397;28;20061;-55
2022/02/02 09:01:29;;;;;;;5.30;2.97;;;;;;;;;;4989731;28;20671;-57
2022/02/02 09:06:38;;;;;;;4.47;3.05;;;;;;;;;;4994226;28;20064;-54
2022/02/02 09:09:19;;;;;;;5.20;3.10;;;;;;;;;;4986216;28;20030;-55
2022/02/02 09:34:57;;;;;;;4.90;2.80;;;;;;;;;;5005484;28;20447;-58
2022/02/02 09:37:23;;;;;;;5.05;2.80;;;;;;;;;;5003949;28;20289;-56
2022/02/02 09:40:05;;;;;;;4.90;3.00;;;;;;;;;;5002353;28;20033;-58
2022/02/02 09:42:30;;;;;;;3.63;2.80;;;;;;;;;;4994040;28;20061;-56
2022/02/02 09:44:57;;;;;;;5.43;2.80;;;;;;;;;;5005137;28;20058;-58
2022/02/02 09:47:35;;;;;;;4.45;2.80;;;;;;;;;;5005369;28;20120;-56
2022/02/02 09:50:38;;;;;;;3.83;2.53;;;;;;;;;;5004573;28;20503;-59
2022/02/02 09:52:57;;;;;;;4.18;2.88;;;;;;;;;;5005578;28;20046;-57
2022/02/02 10:00:40;;;;;;;6.00;3.20;;;;;;;;;;5004226;28;20053;-54
2022/02/02 10:03:33;;;;;;;4.03;2.75;;;;;;;;;;5004060;28;20049;-56
2022/02/02 10:06:07;;;;;;;4.43;3.00;;;;;;;;;;4984081;28;20058;-55
2022/02/02 10:11:45;;;;;;;8.38;3.15;;;;;;;;;;5003870;28;20037;-55
2022/02/02 10:14:16;;;;;;;4.03;3.00;;;;;;;;;;4989508;28;20033;-53
2022/02/02 10:16:42;;;;;;;5.22;2.90;;;;;;;;;;5003564;28;20500;-52
2022/02/02 10:19:20;;;;;;;5.28;3.10;;;;;;;;;;5003848;28;20028;-54
2022/02/02 10:21:46;;;;;;;4.65;3.30;;;;;;;;;;4985415;28;20030;-54
2022/02/02 10:24:11;;;;;;;4.95;3.10;;;;;;;;;;4983894;28;20101;-53
2022/02/02 10:26:43;;;;;;;4.55;3.17;;;;;;;;;;4984182;28;20049;-53
2022/02/02 10:29:10;;;;;;;4.45;3.10;;;;;;;;;;4997398;28;20014;-55
2022/02/02 10:31:39;;;;;;;4.53;3.13;;;;;;;;;;5000294;28;20052;-53
2022/02/02 10:34:08;;;;;;;3.67;2.33;;;;;;;;;;5003262;28;20026;-53
2022/02/02 10:36:33;;;;;;;4.95;3.17;;;;;;;;;;5003605;28;20120;-55
2022/02/02 10:39:11;;;;;;;5.35;2.88;;;;;;;;;;5003427;28;20118;-54
2022/02/02 10:41:46;;;;;;;4.10;2.60;;;;;;;;;;4986417;28;20842;-53
2022/02/02 10:44:21;;;;;;;5.10;2.95;;;;;;;;;;4983743;28;20023;-54
2022/02/02 10:47:02;;;;;;;4.45;2.80;;;;;;;;;;4983895;28;20282;-55
2022/02/02 10:49:57;;;;;;;4.05;2.65;;;;;;;;;;4983737;28;20041;-52
2022/02/02 11:08:53;;;;;;;4.50;2.78;;;;;;;;;;5003256;28;20041;-55
2022/02/02 11:11:18;;;;;;;3.73;2.73;;;;;;;;;;5002772;28;20037;-54
2022/02/02 11:13:43;;;;;;;4.10;2.70;;;;;;;;;;5001995;28;20284;-54
2022/02/02 11:16:10;;;;;;;8.40;4.93;;;;;;;;;;5000743;28;20029;-55
2022/02/02 11:18:42;;;;;;;8.82;3.67;;;;;;;;;;4989425;28;20825;-64
2022/02/02 11:21:07;;;;;;;10.63;4.03;;;;;;;;;;4991124;28;20427;-57
2022/02/02 11:23:45;;;;;;;9.82;4.60;;;;;;;;;;4991371;28;20051;-59
2022/02/02 11:26:10;;;;;;;6.18;3.47;;;;;;;;;;4989491;28;20352;-61
2022/02/02 11:28:36;;;;;;;8.40;4.80;;;;;;;;;;4988849;28;20473;-59
2022/02/02 11:31:12;;;;;;;6.72;4.32;;;;;;;;;;4989716;28;20301;-60
2022/02/02 11:33:41;;;;;;;9.30;4.20;;;;;;;;;;4989761;28;20031;-61
2022/02/02 11:36:16;;;;;;;7.23;3.57;;;;;;;;;;4990004;28;20022;-58
2022/02/02 11:38:43;;;;;;;7.47;3.25;;;;;;;;;;4995328;28;20260;-53
2022/02/02 11:41:34;;;;;;;4.55;2.50;;;;;;;;;;4999727;28;20025;-57
2022/02/02 11:44:07;;;;;;;5.07;2.53;;;;;;;;;;5003714;28;20084;-61
2022/02/02 11:46:47;;;;;;;4.82;2.80;;;;;;;;;;5005815;28;20022;-56
2022/02/02 11:49:18;;;;;;;5.28;2.72;;;;;;;;;;5003832;28;20032;-56
2022/02/02 11:51:54;;;;;;;7.22;2.58;;;;;;;;;;5006890;28;20049;-60
2022/02/02 11:54:42;;;;;;;3.85;2.53;;;;;;;;;;5006980;28;20026;-57
2022/02/02 11:57:16;;;;;;;5.10;2.42;;;;;;;;;;5006132;28;20037;-61
2022/02/02 12:00:06;;;;;;;5.97;2.45;;;;;;;;;;5006716;28;20032;-57
2022/02/02 12:05:13;;;;;;;5.97;2.42;;;;;;;;;;5005623;28;20046;-60
2022/02/02 12:08:03;;;;;;;4.43;2.17;;;;;;;;;;4990847;28;20050;-62
2022/02/02 12:19:19;;;;;;;6.53;2.70;;;;;;;;;;5005278;28;20507;-57
2022/02/02 12:54:38;;;;;;;5.45;2.85;;;;;;;;;;4989722;28;20455;-57
2022/02/02 12:56:53;;;;;;;4.28;2.65;;;;;;;;;;4995556;28;20712;-58
2022/02/02 13:02:05;;;;;;;4.30;2.38;;;;;;;;;;4984101;28;20084;-60
2022/02/02 13:04:31;;;;;;;4.00;2.42;;;;;;;;;;4985611;28;20030;-58
2022/02/02 13:07:15;;;;;;;4.05;2.60;;;;;;;;;;5003127;28;20053;-58
2022/02/02 13:09:41;;;;;;;4.40;2.35;;;;;;;;;;5000780;28;20023;-58
2022/02/02 13:12:22;;;;;;;4.90;2.85;;;;;;;;;;5001154;28;20030;-59
2022/02/02 13:15:13;;;;;;;3.67;2.38;;;;;;;;;;4985040;28;20026;-59
2022/02/02 13:17:45;;;;;;;4.20;2.47;;;;;;;;;;4986804;28;20018;-58
2022/02/02 13:20:12;;;;;;;4.00;2.50;;;;;;;;;;4991906;28;20022;-58
2022/02/02 13:22:38;;;;;;;3.45;2.35;;;;;;;;;;4986809;28;20032;-58
2022/02/02 13:25:16;;;;;;;4.80;2.33;;;;;;;;;;4988103;28;20014;-58
2022/02/02 13:27:46;;;;;;;4.72;2.58;;;;;;;;;;4986428;28;20046;-58
2022/02/02 13:30:11;;;;;;;;;;;;;;;;;;4990548;28;20030;-58
2022/02/02 13:32:48;;;;;;;3.35;2.38;;;;;;;;;;4986091;28;19945;-57
2022/02/02 13:35:22;;;;;;;4.18;2.53;;;;;;;;;;4986114;28;20136;-58
2022/02/02 13:38:03;;;;;;;3.78;2.40;;;;;;;;;;4988351;28;20038;-58
2022/02/02 13:56:06;;;;;;;3.88;2.47;;;;;;;;;;5004609;28;20038;-58
2022/02/02 14:33:21;;;;;;;4.10;2.78;;;;;;;;;;5002913;28;20073;-57
2022/02/02 14:35:47;;;;;;;3.72;2.50;;;;;;;;;;5002842;28;20492;-57
2022/02/02 14:38:14;;;;;;;4.53;2.47;;;;;;;;;;5002658;28;20516;-56
2022/02/02 14:43:23;;;;;;;3.80;2.65;;;;;;;;;;4983576;28;20031;-58
2022/02/02 14:45:53;;;;;;;4.63;2.78;;;;;;;;;;4983268;28;20026;-58
2022/02/02 14:48:27;;;;;;;;;;;;;;;;;;4983974;28;20134;-58
2022/02/02 14:51:02;;;;;;;4.60;2.50;;;;;;;;;;4992509;28;19921;-56
2022/02/02 15:08:00;;;;;;;3.20;2.30;;;;;;;;;;4990720;28;20049;-61
2022/02/02 15:09:50;;;;;;;4.13;2.33;;;;;;;;;;4990513;28;20492;-58
2022/02/02 15:28:41;;;;;;;3.90;2.40;;;;;;;;;;5003591;28;20029;-56
2022/02/02 15:31:06;;;;;;;4.30;2.63;;;;;;;;;;5003923;28;20033;-56
2022/02/02 15:33:33;;;;;;;3.83;2.67;;;;;;;;;;4998761;28;20085;-58
2022/02/02 15:38:37;;;;;;;3.88;2.60;;;;;;;;;;4990343;28;20065;-58
2022/02/02 15:41:08;;;;;;;4.72;2.35;;;;;;;;;;4993449;28;20026;-57
2022/02/02 15:58:06;;;;;;;3.10;2.25;;;;;;;;;;5003247;28;20564;-56
2022/02/02 16:04:58;;;;;;;3.72;2.47;;;;;;;;;;4985462;28;20551;-58
2022/02/02 16:07:27;;;;;;;3.67;2.42;;;;;;;;;;4987001;28;20042;-57
2022/02/02 16:09:56;;;;;;;4.55;2.78;;;;;;;;;;4993070;28;20022;-57
2022/02/02 16:12:30;;;;;;;4.65;2.83;;;;;;;;;;5006190;28;20475;-56
2022/02/02 16:15:13;;;;;;;4.45;3.28;;;;;;;;;;5005584;28;20030;-57
2022/02/02 16:17:58;;;;;;;3.85;2.75;;;;;;;;;;5006547;28;20383;-58
2022/02/02 16:36:37;;;;;;;5.30;3.13;;;;;;;;;;5010446;28;20014;-56
2022/02/02 16:39:12;;;;;;;3.97;2.83;;;;;;;;;;5010408;28;20025;-57
2022/02/02 16:44:22;;;;;;;4.03;2.92;;;;;;;;;;5009057;28;20543;-55
2022/02/02 16:46:47;;;;;;;3.87;2.70;;;;;;;;;;5009287;28;20046;-56
2022/02/02 16:49:12;;;;;;;4.10;2.83;;;;;;;;;;5010002;28;20269;-56
2022/02/02 16:51:38;;;;;;;4.00;3.00;;;;;;;;;;5010640;28;20293;-56
2022/02/02 16:54:06;;;;;;;4.68;2.78;;;;;;;;;;5005158;28;20044;-55
2022/02/02 16:57:02;;;;;;;6.45;2.63;;;;;;;;;;5009543;28;20108;-56
2022/02/02 17:26:05;;;;;;;5.45;3.83;;;;;;;;;;4986094;28;20157;-55
2022/02/02 17:35:09;;;;;;;6.05;3.85;;;;;;;;;;5003779;28;20114;-57
2022/02/02 17:40:14;;;;;;;6.43;3.92;;;;;;;;;;5001562;28;20057;-55
2022/02/02 17:45:25;;;;;;;5.57;3.70;;;;;;;;;;4984433;28;20397;-55
2022/02/02 18:12:31;;;;;;;8.48;3.80;;;;;;;;;;5002677;28;20049;-55
2022/02/02 18:20:28;;;;;;;8.05;3.92;;;;;;;;;;5002394;28;20022;-56
2022/02/02 18:23:05;;;;;;;6.18;3.97;;;;;;;;;;5002461;28;20029;-56
2022/02/02 18:28:30;;;;;;;7.57;3.80;;;;;;;;;;5001876;28;20033;-56
2022/02/02 18:34:00;;;;;;;6.97;3.95;;;;;;;;;;4988644;28;20044;-56
2022/02/02 18:47:08;;;;;;;7.15;3.60;;;;;;;;;;4990663;28;20165;-58
2022/02/02 18:55:36;;;;;;;8.15;3.38;;;;;;;;;;5002554;28;20601;-61
2022/02/02 18:58:47;;;;;;;6.18;3.35;;;;;;;;;;5001631;28;20022;-70
2022/02/02 19:01:07;;;;;;;5.28;3.28;;;;;;;;;;4992924;28;20133;-67
2022/02/02 20:05:40;;;;;;;4.00;2.50;;;;;;;;;;4985984;28;20112;-59
2022/02/02 20:10:49;;;;;;;3.78;2.38;;;;;;;;;;4990133;28;20018;-65
2022/02/02 20:13:15;;;;;;;3.30;2.50;;;;;;;;;;5005175;28;20030;-62
2022/02/02 20:15:41;;;;;;;4.30;2.80;;;;;;;;;;5005600;28;20119;-60
2022/02/02 20:18:07;;;;;;;4.13;2.63;;;;;;;;;;4990825;28;20481;-67
2022/02/02 20:20:37;;;;;;;4.57;2.65;;;;;;;;;;5001806;28;20495;-59
2022/02/02 20:23:03;;;;;;;4.50;2.30;;;;;;;;;;4992030;28;20022;-68
2022/02/02 20:25:29;;;;;;;3.53;2.40;;;;;;;;;;5005384;28;20100;-57
2022/02/02 20:28:04;;;;;;;3.60;2.43;;;;;;;;;;5005616;28;20540;-63
2022/02/02 20:30:29;;;;;;;4.05;2.63;;;;;;;;;;5005047;28;20257;-63
2022/02/02 20:32:54;;;;;;;3.90;2.50;;;;;;;;;;5004946;28;20044;-63
2022/02/02 20:35:19;;;;;;;3.70;2.40;;;;;;;;;;5004903;28;20067;-63
2022/02/02 20:37:44;;;;;;;4.07;2.60;;;;;;;;;;5004733;28;20065;-63
2022/02/02 20:40:12;;;;;;;3.50;2.40;;;;;;;;;;4990797;28;20035;-59
2022/02/02 20:42:47;;;;;;;3.35;2.25;;;;;;;;;;4985089;28;20274;-59
2022/02/02 21:14:47;;;;;;;4.65;2.30;;;;;;;;;;5003868;28;20116;-61
2022/02/02 21:17:21;;;;;;;3.15;2.00;;;;;;;;;;4999587;28;20167;-60
2022/02/02 21:20:06;;;;;;;3.55;2.30;;;;;;;;;;5004004;28;20033;-61
2022/02/02 21:22:34;;;;;;;4.47;2.13;;;;;;;;;;4988392;28;20019;-60
2022/02/02 21:25:13;;;;;;;3.30;2.00;;;;;;;;;;4984338;28;20109;-60
2022/02/02 21:27:40;;;;;;;2.80;2.00;;;;;;;;;;4984376;28;20095;-58
2022/02/02 21:30:09;;;;;;;3.63;2.15;;;;;;;;;;4984256;28;20053;-60
2022/02/02 21:32:34;;;;;;;3.58;2.25;;;;;;;;;;4999548;28;20520;-58
2022/02/02 21:35:05;;;;;;;3.65;2.20;;;;;;;;;;5004425;28;20088;-61
2022/02/02 21:37:34;;;;;;;3.20;2.33;;;;;;;;;;5005238;28;20059;-60
2022/02/02 21:40:18;;;;;;;2.85;2.05;;;;;;;;;;5004178;28;20064;-62
2022/02/02 21:42:43;;;;;;;3.45;2.20;;;;;;;;;;4999249;28;20755;-62
2022/02/02 21:45:09;;;;;;;3.42;2.38;;;;;;;;;;4999507;28;20037;-61
2022/02/02 21:47:34;;;;;;;3.05;2.13;;;;;;;;;;4982699;28;20022;-60
2022/02/02 21:50:02;;;;;;;3.67;1.92;;;;;;;;;;4983942;28;20475;-62
2022/02/02 21:52:32;;;;;;;3.40;2.10;;;;;;;;;;4998529;28;20092;-62
2022/02/02 21:54:57;;;;;;;3.70;2.15;;;;;;;;;;5003350;28;20028;-61
2022/02/02 21:57:22;;;;;;;3.17;2.07;;;;;;;;;;5003473;28;20010;-62
2022/02/02 21:59:49;;;;;;;2.60;1.80;;;;;;;;;;5003227;28;20269;-61
2022/02/02 22:02:14;;;;;;;3.92;2.45;;;;;;;;;;4989456;28;20045;-61
2022/02/02 22:04:39;;;;;;;3.63;2.33;;;;;;;;;;4983779;28;20520;-59
2022/02/02 22:07:05;;;;;;;3.03;2.33;;;;;;;;;;4986823;28;20288;-61
2022/02/02 22:09:31;;;;;;;3.30;1.95;;;;;;;;;;5003118;28;20260;-60
2022/02/02 22:11:56;;;;;;;3.07;2.00;;;;;;;;;;5003326;28;20530;-61
2022/02/02 22:14:22;;;;;;;3.57;2.10;;;;;;;;;;5003049;28;20364;-62
2022/02/02 22:16:49;;;;;;;3.38;2.13;;;;;;;;;;5002636;28;20654;-63
2022/02/02 22:19:15;;;;;;;3.20;2.10;;;;;;;;;;5003271;28;20515;-60
2022/02/02 22:21:40;;;;;;;3.40;2.00;;;;;;;;;;4995710;28;20027;-63
2022/02/02 22:24:05;;;;;;;2.63;1.87;;;;;;;;;;4983474;28;20508;-64
2022/02/02 22:26:31;;;;;;;3.15;1.75;;;;;;;;;;4983343;28;20321;-63
2022/02/02 22:28:56;;;;;;;3.33;2.00;;;;;;;;;;4983136;28;20030;-61
2022/02/02 22:31:22;;;;;;;3.00;1.90;;;;;;;;;;4987582;28;20036;-58
2022/02/02 22:33:47;;;;;;;2.55;1.73;;;;;;;;;;5002696;28;20805;-60
2022/02/02 22:36:13;;;;;;;3.42;2.03;;;;;;;;;;4998300;28;20018;-61
2022/02/02 22:38:38;;;;;;;3.00;2.00;;;;;;;;;;4997734;28;20029;-62
2022/02/02 22:41:04;;;;;;;2.67;2.00;;;;;;;;;;5000595;28;20531;-60
2022/02/02 22:43:32;;;;;;;2.83;1.88;;;;;;;;;;4983092;28;20045;-60
2022/02/02 22:45:58;;;;;;;3.20;1.90;;;;;;;;;;4983320;28;20400;-62
2022/02/02 22:48:25;;;;;;;3.03;2.08;;;;;;;;;;4982813;28;20026;-60
2022/02/02 22:50:51;;;;;;;2.72;2.05;;;;;;;;;;4982984;28;20034;-58
2022/02/02 22:53:23;;;;;;;2.80;1.90;;;;;;;;;;5002801;28;20041;-62
2022/02/02 22:55:48;;;;;;;2.95;1.88;;;;;;;;;;5002521;28;20025;-60
2022/02/02 22:58:14;;;;;;;3.30;1.80;;;;;;;;;;5002737;28;20018;-59
2022/02/02 23:00:40;;;;;;;3.17;2.00;;;;;;;;;;5002144;28;20368;-63
2022/02/02 23:03:10;;;;;;;4.63;2.03;;;;;;;;;;4984049;28;20300;-61
2022/02/02 23:05:41;;;;;;;2.72;1.70;;;;;;;;;;4982580;28;20096;-62
2022/02/02 23:08:08;;;;;;;2.97;1.98;;;;;;;;;;4982847;28;20042;-61
2022/02/02 23:10:34;;;;;;;3.00;1.95;;;;;;;;;;4983064;28;20069;-58
2022/02/02 23:13:00;;;;;;;2.85;1.77;;;;;;;;;;5000269;28;20124;-58
2022/02/02 23:15:37;;;;;;;2.50;1.80;;;;;;;;;;5008719;28;20535;-61
2022/02/02 23:18:14;;;;;;;2.80;1.90;;;;;;;;;;5008847;28;20053;-61
2022/02/02 23:20:40;;;;;;;2.95;1.92;;;;;;;;;;5008823;28;20033;-61
2022/02/02 23:23:06;;;;;;;2.80;1.65;;;;;;;;;;4990324;28;20033;-62
2022/02/02 23:25:32;;;;;;;2.67;1.95;;;;;;;;;;4988917;28;20022;-58
2022/02/02 23:27:58;;;;;;;3.28;2.08;;;;;;;;;;4988999;28;20088;-59
2022/02/02 23:30:23;;;;;;;2.22;1.58;;;;;;;;;;4987574;28;20026;-60
2022/02/02 23:32:49;;;;;;;2.67;1.95;;;;;;;;;;5004575;28;20045;-59
2022/02/02 23:35:14;;;;;;;2.30;1.65;;;;;;;;;;5007332;28;20026;-62
2022/02/02 23:37:39;;;;;;;2.30;1.60;;;;;;;;;;5009015;28;20022;-58
2022/02/02 23:40:07;;;;;;;2.80;1.70;;;;;;;;;;5008692;28;20275;-58
2022/02/02 23:42:36;;;;;;;2.47;1.65;;;;;;;;;;4994927;28;20019;-61
2022/02/02 23:45:02;;;;;;;3.28;1.98;;;;;;;;;;4990205;28;20373;-58
2022/02/02 23:47:28;;;;;;;2.92;2.00;;;;;;;;;;4989048;28;20399;-59
2022/02/02 23:49:54;;;;;;;2.50;1.58;;;;;;;;;;4971593;28;20476;-63
2022/02/02 23:52:24;;;;;;;2.53;1.88;;;;;;;;;;4999407;28;20049;-61
2022/02/02 23:54:50;;;;;;;3.03;1.75;;;;;;;;;;5008578;28;20025;-59
2022/02/02 23:57:24;;;;;;;2.63;1.73;;;;;;;;;;5006502;28;20022;-60
